Radar AviationWeather DUATS TFRs Wunderground Accuweather Weather.com

alt : Radar

TAFs

KFWA 300525Z 3006/3106 22004KT P6SM BKN090
   FM301300 25010KT P6SM FEW045
   FM301700 26014G22KT P6SM BKN050
   FM310000 26008KT P6SM SCT150
KCLE 300447Z 3005/3106 20010KT P6SM SCT050 BKN100
   FM300600 20010KT P6SM VCSH SCT050 BKN120
     TEMPO 3007/3010 6SM -SHRA BKN060
   FM301000 21008KT P6SM SCT050
   FM301600 24012G18KT P6SM BKN050
KDTW 300224Z 3002/3106 25006KT P6SM SCT080
   FM301400 23012KT P6SM SCT050
   FM301700 24014G22KT P6SM BKN060
   FM310000 22008KT P6SM BKN080
KFDY 300144Z 3002/3024 24008KT P6SM VCTS BKN040CB
     TEMPO 3002/3004 VRB15G32KT 2SM -TSRA OVC020CB
   FM300400 24010KT P6SM BKN040
   FM300900 23006KT P6SM SCT080
   FM301500 25012G18KT P6SM BKN050
KTOL 292330Z 3000/3024 22011KT P6SM VCSH SCT050 BKN080
     TEMPO 3000/3004 5SM -SHRA BKN025
   FM300600 24005KT P6SM SCT100
   FM301400 25012G18KT P6SM BKN050
KJXN 292322Z 3000/3024 30010KT P6SM SCT050
   FM300100 24005KT P6SM SKC
   FM300900 23006KT P6SM BKN040 BKN070
   FM301200 25012KT P6SM SCT035
   FM301600 26015G25KT P6SM VCSH BKN050

METARs

KDUH 300515Z AUTO 00000KT 10SM SCT075 BKN100 BKN120 15/12 A2990 RMK AO2 T01480119
KJXN 300456Z AUTO 23004KT 10SM CLR 13/08 A2989 RMK AO2 SLP118 T01280083 402560122
KFWA 300454Z 21004KT 10SM BKN090 16/13 A2993 RMK AO2 SLP130 T01610133 402610133
KDTW 300453Z 18005KT 10SM SCT085 BKN110 BKN190 15/13 A2990 RMK AO2 SLP121 T01500133 402720139 $
KFDY 300453Z AUTO 21003KT 10SM SCT100 16/12 A2991 RMK AO2 SLP121 T01610117 402720144 TSNO
KTDZ 300453Z AUTO 23005KT 10SM -RA BKN085 BKN110 18/13 A2992 RMK AO2 RAB53 SLP127 P0000 T01780133 402720150
KTOL 300452Z 00000KT 10SM BKN090 BKN110 14/13 A2990 RMK AO2 SLP123 T01440128 402670133
KCLE 300451Z 20007KT 10SM SCT110 BKN170 OVC250 17/13 A2993 RMK AO2 RAE04 TSE17 SLP131 P0001 T01720133 402780156 $

alt : Satellite

alt : TFRs